Bodoquena, Brazil
Current Conditions -  °F | °C
As of 6:00 PM on Monday 20 Oct 2014 (Local Time) from SBCR Reporting Station
Thunderstorm Thunderstorm  
Wind Chill: 73°   Ceiling: 2000
Heat Index: 73°   Visibility: 4mi
Dew Point: 72°   Wind: 5mph
Humidity: 94%   Direction: 180°S
Pressure: NA   Gusts: NA
Location:  20.54°S, 56.71°W
Report Text: SBCR 202200Z 18004KT 7000 -TSRA BKN020 FEW030CB BKN050 23/22 Q1013
Loading
Personal Weather Stations






























Interactive Weather Map
Tropical Storm Tracking
New forecast layout! Learn more

10-Day Weather Forecast

Advertisements
Track Severe Weather on mobile